sensor_id;sensor_type;location;lat;lon;timestamp;temperature;humidity
55369;DHT22;41247;49.736;8.752;2022-12-17T00:03:22;-8.10;99.90
55369;DHT22;41247;49.736;8.752;2022-12-17T00:07:02;-8.10;99.90
55369;DHT22;41247;49.736;8.752;2022-12-17T00:10:43;-8.10;99.90
55369;DHT22;41247;49.736;8.752;2022-12-17T00:14:24;-8.00;99.90
55369;DHT22;41247;49.736;8.752;2022-12-17T00:18:06;-8.00;99.90
55369;DHT22;41247;49.736;8.752;2022-12-17T00:21:46;-8.00;99.90
55369;DHT22;41247;49.736;8.752;2022-12-17T00:25:27;-8.10;99.90
55369;DHT22;41247;49.736;8.752;2022-12-17T00:29:09;-8.10;99.90
55369;DHT22;41247;49.736;8.752;2022-12-17T00:32:50;-8.10;99.90
55369;DHT22;41247;49.736;8.752;2022-12-17T00:36:30;-8.10;99.90
55369;DHT22;41247;49.736;8.752;2022-12-17T00:40:11;-8.10;99.90
55369;DHT22;41247;49.736;8.752;2022-12-17T00:43:52;-8.10;99.90
55369;DHT22;41247;49.736;8.752;2022-12-17T00:47:32;-8.10;99.90
55369;DHT22;41247;49.736;8.752;2022-12-17T00:51:13;-8.10;99.90
55369;DHT22;41247;49.736;8.752;2022-12-17T00:54:53;-8.10;99.90
55369;DHT22;41247;49.736;8.752;2022-12-17T00:58:34;-8.10;99.90
55369;DHT22;41247;49.736;8.752;2022-12-17T01:02:14;-8.10;99.90
55369;DHT22;41247;49.736;8.752;2022-12-17T01:05:56;-8.10;99.90
55369;DHT22;41247;49.736;8.752;2022-12-17T01:09:40;-8.10;99.90
55369;DHT22;41247;49.736;8.752;2022-12-17T01:13:21;-8.10;99.90
55369;DHT22;41247;49.736;8.752;2022-12-17T01:17:02;-8.00;99.90
55369;DHT22;41247;49.736;8.752;2022-12-17T01:20:42;-8.00;99.90
55369;DHT22;41247;49.736;8.752;2022-12-17T01:24:23;-8.00;99.90
55369;DHT22;41247;49.736;8.752;2022-12-17T01:28:04;-8.10;99.90
55369;DHT22;41247;49.736;8.752;2022-12-17T01:31:45;-8.10;99.90
55369;DHT22;41247;49.736;8.752;2022-12-17T01:35:25;-8.10;99.90
55369;DHT22;41247;49.736;8.752;2022-12-17T01:39:06;-8.10;99.90
55369;DHT22;41247;49.736;8.752;2022-12-17T01:42:47;-8.10;99.90
55369;DHT22;41247;49.736;8.752;2022-12-17T01:46:32;-8.10;99.90
55369;DHT22;41247;49.736;8.752;2022-12-17T01:50:16;-8.10;99.90
55369;DHT22;41247;49.736;8.752;2022-12-17T01:53:59;-8.00;99.90
55369;DHT22;41247;49.736;8.752;2022-12-17T01:57:40;-8.00;99.90
55369;DHT22;41247;49.736;8.752;2022-12-17T02:01:21;-8.10;99.90
55369;DHT22;41247;49.736;8.752;2022-12-17T02:05:01;-8.10;99.90
55369;DHT22;41247;49.736;8.752;2022-12-17T02:09:14;-8.10;99.90
55369;DHT22;41247;49.736;8.752;2022-12-17T02:12:58;-8.10;99.90
55369;DHT22;41247;49.736;8.752;2022-12-17T02:16:52;-8.00;99.90
55369;DHT22;41247;49.736;8.752;2022-12-17T02:20:43;-7.90;99.90
55369;DHT22;41247;49.736;8.752;2022-12-17T02:25:01;-7.90;99.90
55369;DHT22;41247;49.736;8.752;2022-12-17T02:28:48;-7.90;99.90
55369;DHT22;41247;49.736;8.752;2022-12-17T02:32:31;-7.90;99.90
55369;DHT22;41247;49.736;8.752;2022-12-17T02:36:14;-7.80;99.90
55369;DHT22;41247;49.736;8.752;2022-12-17T02:39:54;-7.80;99.90
55369;DHT22;41247;49.736;8.752;2022-12-17T02:43:35;-7.80;99.90
55369;DHT22;41247;49.736;8.752;2022-12-17T02:47:17;-7.80;99.90
55369;DHT22;41247;49.736;8.752;2022-12-17T02:50:59;-7.80;99.90
55369;DHT22;41247;49.736;8.752;2022-12-17T02:54:39;-7.80;99.90
55369;DHT22;41247;49.736;8.752;2022-12-17T02:58:20;-7.80;99.90
55369;DHT22;41247;49.736;8.752;2022-12-17T03:02:01;-7.80;99.90
55369;DHT22;41247;49.736;8.752;2022-12-17T03:05:41;-7.90;99.90
55369;DHT22;41247;49.736;8.752;2022-12-17T03:09:22;-7.90;99.90
55369;DHT22;41247;49.736;8.752;2022-12-17T03:13:03;-8.00;99.90
55369;DHT22;41247;49.736;8.752;2022-12-17T03:16:43;-8.00;99.90
55369;DHT22;41247;49.736;8.752;2022-12-17T03:20:24;-8.00;99.90
55369;DHT22;41247;49.736;8.752;2022-12-17T03:24:05;-8.00;99.90
55369;DHT22;41247;49.736;8.752;2022-12-17T03:27:45;-8.00;99.90
55369;DHT22;41247;49.736;8.752;2022-12-17T03:31:26;-8.00;99.90
55369;DHT22;41247;49.736;8.752;2022-12-17T03:35:07;-8.10;99.90
55369;DHT22;41247;49.736;8.752;2022-12-17T03:38:47;-8.10;99.90
55369;DHT22;41247;49.736;8.752;2022-12-17T03:42:28;-8.10;99.90
55369;DHT22;41247;49.736;8.752;2022-12-17T03:46:09;-8.20;99.90
55369;DHT22;41247;49.736;8.752;2022-12-17T03:49:50;-8.20;99.90
55369;DHT22;41247;49.736;8.752;2022-12-17T03:53:31;-8.30;99.90
55369;DHT22;41247;49.736;8.752;2022-12-17T03:57:11;-8.30;99.90
55369;DHT22;41247;49.736;8.752;2022-12-17T04:00:52;-8.20;99.90
55369;DHT22;41247;49.736;8.752;2022-12-17T04:04:32;-8.10;99.90
55369;DHT22;41247;49.736;8.752;2022-12-17T04:08:13;-8.10;99.90
55369;DHT22;41247;49.736;8.752;2022-12-17T04:11:53;-8.00;99.90
55369;DHT22;41247;49.736;8.752;2022-12-17T04:15:34;-8.00;99.90
55369;DHT22;41247;49.736;8.752;2022-12-17T04:19:15;-8.00;99.90
55369;DHT22;41247;49.736;8.752;2022-12-17T04:22:56;-7.90;99.90
55369;DHT22;41247;49.736;8.752;2022-12-17T04:26:37;-7.80;99.90
55369;DHT22;41247;49.736;8.752;2022-12-17T04:30:18;-7.80;99.90
55369;DHT22;41247;49.736;8.752;2022-12-17T04:33:59;-7.80;99.90
55369;DHT22;41247;49.736;8.752;2022-12-17T04:37:40;-7.80;99.90
55369;DHT22;41247;49.736;8.752;2022-12-17T04:41:20;-7.80;99.90
55369;DHT22;41247;49.736;8.752;2022-12-17T04:45:01;-7.80;99.90
55369;DHT22;41247;49.736;8.752;2022-12-17T04:48:42;-7.80;99.90
55369;DHT22;41247;49.736;8.752;2022-12-17T04:52:23;-7.80;99.90
55369;DHT22;41247;49.736;8.752;2022-12-17T04:56:03;-7.80;99.90
55369;DHT22;41247;49.736;8.752;2022-12-17T04:59:44;-7.80;99.90
55369;DHT22;41247;49.736;8.752;2022-12-17T05:03:25;-7.80;99.90
55369;DHT22;41247;49.736;8.752;2022-12-17T05:07:06;-7.80;99.90
55369;DHT22;41247;49.736;8.752;2022-12-17T05:10:46;-7.90;99.90
55369;DHT22;41247;49.736;8.752;2022-12-17T05:14:27;-7.80;99.90
55369;DHT22;41247;49.736;8.752;2022-12-17T05:18:08;-7.80;99.90
55369;DHT22;41247;49.736;8.752;2022-12-17T05:21:48;-7.80;99.90
55369;DHT22;41247;49.736;8.752;2022-12-17T05:25:29;-7.70;99.90
55369;DHT22;41247;49.736;8.752;2022-12-17T05:29:10;-7.70;99.90
55369;DHT22;41247;49.736;8.752;2022-12-17T05:32:59;-7.70;99.90
55369;DHT22;41247;49.736;8.752;2022-12-17T05:36:40;-7.70;99.90
55369;DHT22;41247;49.736;8.752;2022-12-17T05:40:21;-7.70;99.90
55369;DHT22;41247;49.736;8.752;2022-12-17T05:44:02;-7.70;99.90
55369;DHT22;41247;49.736;8.752;2022-12-17T05:47:42;-7.60;99.90
55369;DHT22;41247;49.736;8.752;2022-12-17T05:51:23;-7.60;99.90
55369;DHT22;41247;49.736;8.752;2022-12-17T05:55:04;-7.50;99.90
55369;DHT22;41247;49.736;8.752;2022-12-17T05:58:45;-7.60;99.90
55369;DHT22;41247;49.736;8.752;2022-12-17T06:02:25;-7.60;99.90
55369;DHT22;41247;49.736;8.752;2022-12-17T06:06:06;-7.60;99.90
55369;DHT22;41247;49.736;8.752;2022-12-17T06:09:47;-7.70;99.90
55369;DHT22;41247;49.736;8.752;2022-12-17T06:13:27;-7.70;99.90
55369;DHT22;41247;49.736;8.752;2022-12-17T06:17:08;-7.70;99.90
55369;DHT22;41247;49.736;8.752;2022-12-17T06:20:51;-7.70;99.90
55369;DHT22;41247;49.736;8.752;2022-12-17T06:24:32;-7.60;99.90
55369;DHT22;41247;49.736;8.752;2022-12-17T06:28:12;-7.60;99.90
55369;DHT22;41247;49.736;8.752;2022-12-17T06:31:53;-7.60;99.90
55369;DHT22;41247;49.736;8.752;2022-12-17T06:35:33;-7.50;99.90
55369;DHT22;41247;49.736;8.752;2022-12-17T06:39:14;-7.50;99.90
55369;DHT22;41247;49.736;8.752;2022-12-17T06:42:55;-7.50;99.90
55369;DHT22;41247;49.736;8.752;2022-12-17T06:46:36;-7.50;99.90
55369;DHT22;41247;49.736;8.752;2022-12-17T06:50:16;-7.50;99.90
55369;DHT22;41247;49.736;8.752;2022-12-17T06:53:57;-7.50;99.90
55369;DHT22;41247;49.736;8.752;2022-12-17T06:57:38;-7.50;99.90
55369;DHT22;41247;49.736;8.752;2022-12-17T07:01:20;-7.50;99.90
55369;DHT22;41247;49.736;8.752;2022-12-17T07:05:00;-7.50;99.90
55369;DHT22;41247;49.736;8.752;2022-12-17T07:08:41;-7.50;99.90
55369;DHT22;41247;49.736;8.752;2022-12-17T07:12:22;-7.50;99.90
55369;DHT22;41247;49.736;8.752;2022-12-17T07:16:02;-7.50;99.90
55369;DHT22;41247;49.736;8.752;2022-12-17T07:19:43;-7.50;99.90
55369;DHT22;41247;49.736;8.752;2022-12-17T07:23:24;-7.40;99.90
55369;DHT22;41247;49.736;8.752;2022-12-17T07:27:04;-7.50;99.90
55369;DHT22;41247;49.736;8.752;2022-12-17T07:30:45;-7.50;99.90
55369;DHT22;41247;49.736;8.752;2022-12-17T07:34:26;-7.50;99.90
55369;DHT22;41247;49.736;8.752;2022-12-17T07:38:07;-7.60;99.90
55369;DHT22;41247;49.736;8.752;2022-12-17T07:41:49;-7.70;99.90
55369;DHT22;41247;49.736;8.752;2022-12-17T07:45:30;-7.80;99.90
55369;DHT22;41247;49.736;8.752;2022-12-17T07:49:11;-7.80;99.90
55369;DHT22;41247;49.736;8.752;2022-12-17T07:52:59;-8.00;99.90
55369;DHT22;41247;49.736;8.752;2022-12-17T07:56:40;-8.00;99.90
55369;DHT22;41247;49.736;8.752;2022-12-17T08:00:20;-8.00;99.90
55369;DHT22;41247;49.736;8.752;2022-12-17T08:04:01;-8.00;99.90
55369;DHT22;41247;49.736;8.752;2022-12-17T08:07:41;-8.00;99.90
55369;DHT22;41247;49.736;8.752;2022-12-17T08:11:22;-8.00;99.90
55369;DHT22;41247;49.736;8.752;2022-12-17T08:15:06;-8.00;99.90
55369;DHT22;41247;49.736;8.752;2022-12-17T08:18:46;-8.00;99.90
55369;DHT22;41247;49.736;8.752;2022-12-17T08:22:28;-8.00;99.90
55369;DHT22;41247;49.736;8.752;2022-12-17T08:26:08;-7.90;99.90
55369;DHT22;41247;49.736;8.752;2022-12-17T08:29:49;-7.90;99.90
55369;DHT22;41247;49.736;8.752;2022-12-17T08:33:29;-7.80;99.90
55369;DHT22;41247;49.736;8.752;2022-12-17T08:37:10;-7.80;99.90
55369;DHT22;41247;49.736;8.752;2022-12-17T08:40:51;-7.80;99.90
55369;DHT22;41247;49.736;8.752;2022-12-17T08:44:31;-7.70;99.90
55369;DHT22;41247;49.736;8.752;2022-12-17T08:48:12;-7.60;99.90
55369;DHT22;41247;49.736;8.752;2022-12-17T08:51:52;-7.50;99.90
55369;DHT22;41247;49.736;8.752;2022-12-17T08:55:34;-7.40;99.90
55369;DHT22;41247;49.736;8.752;2022-12-17T08:59:14;-7.40;99.90
55369;DHT22;41247;49.736;8.752;2022-12-17T09:03:01;-7.30;99.90
55369;DHT22;41247;49.736;8.752;2022-12-17T09:06:43;-7.20;99.90
55369;DHT22;41247;49.736;8.752;2022-12-17T09:10:25;-7.10;99.90
55369;DHT22;41247;49.736;8.752;2022-12-17T09:14:06;-7.10;99.90
55369;DHT22;41247;49.736;8.752;2022-12-17T09:17:46;-7.00;99.90
55369;DHT22;41247;49.736;8.752;2022-12-17T09:21:28;-6.90;99.90
55369;DHT22;41247;49.736;8.752;2022-12-17T09:25:09;-6.90;99.90
55369;DHT22;41247;49.736;8.752;2022-12-17T09:28:50;-6.80;99.90
55369;DHT22;41247;49.736;8.752;2022-12-17T09:32:30;-6.70;99.90
55369;DHT22;41247;49.736;8.752;2022-12-17T09:36:11;-6.60;99.90
55369;DHT22;41247;49.736;8.752;2022-12-17T09:39:51;-6.50;99.90
55369;DHT22;41247;49.736;8.752;2022-12-17T09:48:23;-6.20;99.90
55369;DHT22;41247;49.736;8.752;2022-12-17T09:52:16;-6.00;99.90
55369;DHT22;41247;49.736;8.752;2022-12-17T09:55:58;-5.90;99.90
55369;DHT22;41247;49.736;8.752;2022-12-17T09:59:39;-5.80;99.90
55369;DHT22;41247;49.736;8.752;2022-12-17T10:03:21;-5.60;99.90
55369;DHT22;41247;49.736;8.752;2022-12-17T10:07:04;-5.30;99.90
55369;DHT22;41247;49.736;8.752;2022-12-17T10:10:54;-5.20;99.90
55369;DHT22;41247;49.736;8.752;2022-12-17T10:14:34;-5.10;99.90
55369;DHT22;41247;49.736;8.752;2022-12-17T10:18:18;-5.00;99.90
55369;DHT22;41247;49.736;8.752;2022-12-17T10:22:13;-4.90;99.90
55369;DHT22;41247;49.736;8.752;2022-12-17T10:25:55;-4.70;99.90
55369;DHT22;41247;49.736;8.752;2022-12-17T10:29:36;-4.50;99.90
55369;DHT22;41247;49.736;8.752;2022-12-17T10:33:19;-4.20;99.90
55369;DHT22;41247;49.736;8.752;2022-12-17T10:37:00;-3.90;99.90
55369;DHT22;41247;49.736;8.752;2022-12-17T10:40:41;-3.60;99.90
55369;DHT22;41247;49.736;8.752;2022-12-17T10:44:28;-3.50;99.90
55369;DHT22;41247;49.736;8.752;2022-12-17T10:48:29;-3.30;99.90
55369;DHT22;41247;49.736;8.752;2022-12-17T10:52:29;-3.10;99.90
55369;DHT22;41247;49.736;8.752;2022-12-17T10:56:25;-3.00;99.90
55369;DHT22;41247;49.736;8.752;2022-12-17T11:04:27;-2.80;99.90
55369;DHT22;41247;49.736;8.752;2022-12-17T11:08:11;-2.70;99.90
55369;DHT22;41247;49.736;8.752;2022-12-17T11:11:53;-2.70;99.90
55369;DHT22;41247;49.736;8.752;2022-12-17T11:15:40;-2.60;99.90
55369;DHT22;41247;49.736;8.752;2022-12-17T11:19:55;-2.50;99.90
55369;DHT22;41247;49.736;8.752;2022-12-17T11:23:40;-2.40;99.90
55369;DHT22;41247;49.736;8.752;2022-12-17T11:27:28;-2.30;99.90
55369;DHT22;41247;49.736;8.752;2022-12-17T11:40:00;-2.10;99.90
55369;DHT22;41247;49.736;8.752;2022-12-17T11:47:47;-2.00;99.90
55369;DHT22;41247;49.736;8.752;2022-12-17T11:56:12;-1.80;99.90
55369;DHT22;41247;49.736;8.752;2022-12-17T12:00:15;-1.70;99.90
55369;DHT22;41247;49.736;8.752;2022-12-17T12:04:23;-1.70;99.90
55369;DHT22;41247;49.736;8.752;2022-12-17T12:08:19;-1.70;99.90
55369;DHT22;41247;49.736;8.752;2022-12-17T12:16:35;-1.80;99.90
55369;DHT22;41247;49.736;8.752;2022-12-17T12:25:14;-1.70;99.90
55369;DHT22;41247;49.736;8.752;2022-12-17T12:33:43;-1.70;99.90
55369;DHT22;41247;49.736;8.752;2022-12-17T12:37:28;-1.60;99.90
55369;DHT22;41247;49.736;8.752;2022-12-17T12:46:14;-1.70;99.90
55369;DHT22;41247;49.736;8.752;2022-12-17T12:50:14;-1.70;99.90
55369;DHT22;41247;49.736;8.752;2022-12-17T12:54:20;-1.80;99.90
55369;DHT22;41247;49.736;8.752;2022-12-17T12:58:24;-1.90;99.90
55369;DHT22;41247;49.736;8.752;2022-12-17T13:02:30;-1.90;99.90
55369;DHT22;41247;49.736;8.752;2022-12-17T13:06:12;-1.90;99.90
55369;DHT22;41247;49.736;8.752;2022-12-17T13:09:56;-1.90;99.90
55369;DHT22;41247;49.736;8.752;2022-12-17T13:13:45;-2.00;99.90
55369;DHT22;41247;49.736;8.752;2022-12-17T13:17:54;-2.10;99.90
55369;DHT22;41247;49.736;8.752;2022-12-17T13:21:37;-2.10;99.90
55369;DHT22;41247;49.736;8.752;2022-12-17T13:25:20;-2.10;99.90
55369;DHT22;41247;49.736;8.752;2022-12-17T13:29:21;-2.20;99.90
55369;DHT22;41247;49.736;8.752;2022-12-17T13:37:54;-2.30;99.90
55369;DHT22;41247;49.736;8.752;2022-12-17T13:46:49;-2.30;99.90
55369;DHT22;41247;49.736;8.752;2022-12-17T14:10:03;-2.40;99.90
55369;DHT22;41247;49.736;8.752;2022-12-17T14:28:43;-3.20;99.90
55369;DHT22;41247;49.736;8.752;2022-12-17T14:47:51;-3.50;99.90
55369;DHT22;41247;49.736;8.752;2022-12-17T15:01:29;-3.80;99.90
55369;DHT22;41247;49.736;8.752;2022-12-17T15:06:30;-3.90;99.90
55369;DHT22;41247;49.736;8.752;2022-12-17T15:11:02;-4.00;99.90
55369;DHT22;41247;49.736;8.752;2022-12-17T15:16:02;-4.20;99.90
55369;DHT22;41247;49.736;8.752;2022-12-17T15:20:30;-4.30;99.90
55369;DHT22;41247;49.736;8.752;2022-12-17T15:24:33;-4.50;99.90
55369;DHT22;41247;49.736;8.752;2022-12-17T15:28:22;-4.60;99.90
55369;DHT22;41247;49.736;8.752;2022-12-17T15:32:05;-4.80;99.90
55369;DHT22;41247;49.736;8.752;2022-12-17T15:35:48;-5.00;99.90
55369;DHT22;41247;49.736;8.752;2022-12-17T15:39:29;-5.30;99.90
55369;DHT22;41247;49.736;8.752;2022-12-17T15:43:11;-5.50;99.90
55369;DHT22;41247;49.736;8.752;2022-12-17T15:46:51;-5.60;99.90
55369;DHT22;41247;49.736;8.752;2022-12-17T15:50:32;-5.80;99.90
55369;DHT22;41247;49.736;8.752;2022-12-17T15:54:13;-6.00;99.90
55369;DHT22;41247;49.736;8.752;2022-12-17T15:57:53;-6.20;99.90
55369;DHT22;41247;49.736;8.752;2022-12-17T16:01:34;-6.30;99.90
55369;DHT22;41247;49.736;8.752;2022-12-17T16:05:15;-6.30;99.90
55369;DHT22;41247;49.736;8.752;2022-12-17T16:08:56;-6.40;99.90
55369;DHT22;41247;49.736;8.752;2022-12-17T16:12:37;-6.40;99.90
55369;DHT22;41247;49.736;8.752;2022-12-17T16:16:18;-6.50;99.90
55369;DHT22;41247;49.736;8.752;2022-12-17T16:19:59;-6.60;99.90
55369;DHT22;41247;49.736;8.752;2022-12-17T16:23:39;-6.60;99.90
55369;DHT22;41247;49.736;8.752;2022-12-17T16:27:20;-6.70;99.90
55369;DHT22;41247;49.736;8.752;2022-12-17T16:34:46;-6.80;99.90
55369;DHT22;41247;49.736;8.752;2022-12-17T16:38:27;-6.90;99.90
55369;DHT22;41247;49.736;8.752;2022-12-17T16:42:07;-6.90;99.90
55369;DHT22;41247;49.736;8.752;2022-12-17T16:45:50;-7.00;99.90
55369;DHT22;41247;49.736;8.752;2022-12-17T16:49:31;-7.10;99.90
55369;DHT22;41247;49.736;8.752;2022-12-17T16:53:12;-7.20;99.90
55369;DHT22;41247;49.736;8.752;2022-12-17T16:56:53;-7.30;99.90
55369;DHT22;41247;49.736;8.752;2022-12-17T17:00:34;-7.40;99.90
55369;DHT22;41247;49.736;8.752;2022-12-17T17:04:17;-7.50;99.90
55369;DHT22;41247;49.736;8.752;2022-12-17T17:07:59;-7.60;99.90
55369;DHT22;41247;49.736;8.752;2022-12-17T17:11:40;-7.70;99.90
55369;DHT22;41247;49.736;8.752;2022-12-17T17:15:22;-7.80;99.90
55369;DHT22;41247;49.736;8.752;2022-12-17T17:19:03;-7.90;99.90
55369;DHT22;41247;49.736;8.752;2022-12-17T17:22:44;-7.90;99.90
55369;DHT22;41247;49.736;8.752;2022-12-17T17:26:27;-7.90;99.90
55369;DHT22;41247;49.736;8.752;2022-12-17T17:30:10;-7.90;99.90
55369;DHT22;41247;49.736;8.752;2022-12-17T17:33:51;-7.90;99.90
55369;DHT22;41247;49.736;8.752;2022-12-17T17:37:32;-8.00;99.90
55369;DHT22;41247;49.736;8.752;2022-12-17T17:41:16;-8.00;99.90
55369;DHT22;41247;49.736;8.752;2022-12-17T17:44:58;-8.10;99.90
55369;DHT22;41247;49.736;8.752;2022-12-17T17:48:39;-8.20;99.90
55369;DHT22;41247;49.736;8.752;2022-12-17T17:52:20;-8.20;99.90
55369;DHT22;41247;49.736;8.752;2022-12-17T17:56:15;-8.20;99.90
55369;DHT22;41247;49.736;8.752;2022-12-17T17:59:56;-8.20;99.90
55369;DHT22;41247;49.736;8.752;2022-12-17T18:03:38;-8.20;99.90
55369;DHT22;41247;49.736;8.752;2022-12-17T18:07:18;-8.30;99.90
55369;DHT22;41247;49.736;8.752;2022-12-17T18:11:00;-8.30;99.90
55369;DHT22;41247;49.736;8.752;2022-12-17T18:14:42;-8.30;99.90
55369;DHT22;41247;49.736;8.752;2022-12-17T18:18:23;-8.40;99.90
55369;DHT22;41247;49.736;8.752;2022-12-17T18:22:03;-8.50;99.90
55369;DHT22;41247;49.736;8.752;2022-12-17T18:25:44;-8.50;99.90
55369;DHT22;41247;49.736;8.752;2022-12-17T18:29:26;-8.50;99.90
55369;DHT22;41247;49.736;8.752;2022-12-17T18:33:06;-8.60;99.90
55369;DHT22;41247;49.736;8.752;2022-12-17T18:36:48;-8.60;99.90
55369;DHT22;41247;49.736;8.752;2022-12-17T18:40:29;-8.60;99.90
55369;DHT22;41247;49.736;8.752;2022-12-17T18:44:10;-8.70;99.90
55369;DHT22;41247;49.736;8.752;2022-12-17T18:47:51;-8.70;99.90
55369;DHT22;41247;49.736;8.752;2022-12-17T18:51:33;-8.60;99.90
55369;DHT22;41247;49.736;8.752;2022-12-17T18:55:14;-8.60;99.90
55369;DHT22;41247;49.736;8.752;2022-12-17T18:58:55;-8.70;99.90
55369;DHT22;41247;49.736;8.752;2022-12-17T19:02:37;-8.60;99.90
55369;DHT22;41247;49.736;8.752;2022-12-17T19:06:19;-8.60;99.90
55369;DHT22;41247;49.736;8.752;2022-12-17T19:10:00;-8.50;99.90
55369;DHT22;41247;49.736;8.752;2022-12-17T19:13:41;-8.50;99.90
55369;DHT22;41247;49.736;8.752;2022-12-17T19:17:23;-8.50;99.90
55369;DHT22;41247;49.736;8.752;2022-12-17T19:21:04;-8.40;99.90
55369;DHT22;41247;49.736;8.752;2022-12-17T19:24:46;-8.30;99.90
55369;DHT22;41247;49.736;8.752;2022-12-17T19:28:26;-8.20;99.90
55369;DHT22;41247;49.736;8.752;2022-12-17T19:32:07;-8.10;99.90
55369;DHT22;41247;49.736;8.752;2022-12-17T19:35:48;-8.10;99.90
55369;DHT22;41247;49.736;8.752;2022-12-17T19:39:28;-8.10;99.90
55369;DHT22;41247;49.736;8.752;2022-12-17T19:43:09;-8.00;99.90
55369;DHT22;41247;49.736;8.752;2022-12-17T19:46:49;-7.90;99.90
55369;DHT22;41247;49.736;8.752;2022-12-17T19:50:33;-7.80;99.90
55369;DHT22;41247;49.736;8.752;2022-12-17T19:54:14;-7.70;99.90
55369;DHT22;41247;49.736;8.752;2022-12-17T19:57:54;-7.60;99.90
55369;DHT22;41247;49.736;8.752;2022-12-17T20:01:41;-7.60;99.90
55369;DHT22;41247;49.736;8.752;2022-12-17T20:05:22;-7.50;99.90
55369;DHT22;41247;49.736;8.752;2022-12-17T20:09:05;-7.40;99.90
55369;DHT22;41247;49.736;8.752;2022-12-17T20:12:46;-7.40;99.90
55369;DHT22;41247;49.736;8.752;2022-12-17T20:16:28;-7.40;99.90
55369;DHT22;41247;49.736;8.752;2022-12-17T20:20:10;-7.40;99.90
55369;DHT22;41247;49.736;8.752;2022-12-17T20:23:51;-7.40;99.90
55369;DHT22;41247;49.736;8.752;2022-12-17T20:27:32;-7.30;99.90
55369;DHT22;41247;49.736;8.752;2022-12-17T20:31:14;-7.30;99.90
55369;DHT22;41247;49.736;8.752;2022-12-17T20:34:54;-7.20;99.90
55369;DHT22;41247;49.736;8.752;2022-12-17T20:38:35;-7.20;99.90
55369;DHT22;41247;49.736;8.752;2022-12-17T20:42:16;-7.20;99.90
55369;DHT22;41247;49.736;8.752;2022-12-17T20:46:00;-7.20;99.90
55369;DHT22;41247;49.736;8.752;2022-12-17T20:49:40;-7.30;99.90
55369;DHT22;41247;49.736;8.752;2022-12-17T20:53:21;-7.30;99.90
55369;DHT22;41247;49.736;8.752;2022-12-17T20:57:02;-7.30;99.90
55369;DHT22;41247;49.736;8.752;2022-12-17T21:00:42;-7.20;99.90
55369;DHT22;41247;49.736;8.752;2022-12-17T21:04:23;-7.20;99.90
55369;DHT22;41247;49.736;8.752;2022-12-17T21:08:03;-6.90;99.90
55369;DHT22;41247;49.736;8.752;2022-12-17T21:11:44;-6.80;99.90
55369;DHT22;41247;49.736;8.752;2022-12-17T21:15:28;-6.70;99.90
55369;DHT22;41247;49.736;8.752;2022-12-17T21:19:14;-6.60;99.90
55369;DHT22;41247;49.736;8.752;2022-12-17T21:22:56;-6.60;99.90
55369;DHT22;41247;49.736;8.752;2022-12-17T21:26:39;-6.60;99.90
55369;DHT22;41247;49.736;8.752;2022-12-17T21:30:21;-6.40;99.90
55369;DHT22;41247;49.736;8.752;2022-12-17T21:34:03;-5.90;99.90
55369;DHT22;41247;49.736;8.752;2022-12-17T21:37:44;-5.60;99.90
55369;DHT22;41247;49.736;8.752;2022-12-17T21:41:28;-5.60;99.90
55369;DHT22;41247;49.736;8.752;2022-12-17T21:45:11;-5.70;99.90
55369;DHT22;41247;49.736;8.752;2022-12-17T21:48:52;-5.90;99.90
55369;DHT22;41247;49.736;8.752;2022-12-17T21:52:33;-6.10;99.90
55369;DHT22;41247;49.736;8.752;2022-12-17T21:56:17;-6.20;99.90
55369;DHT22;41247;49.736;8.752;2022-12-17T21:59:58;-6.20;99.90
55369;DHT22;41247;49.736;8.752;2022-12-17T22:03:39;-6.30;99.90
55369;DHT22;41247;49.736;8.752;2022-12-17T22:07:19;-6.30;99.90
55369;DHT22;41247;49.736;8.752;2022-12-17T22:11:15;-6.40;99.90
55369;DHT22;41247;49.736;8.752;2022-12-17T22:14:57;-6.50;99.90
55369;DHT22;41247;49.736;8.752;2022-12-17T22:18:40;-6.60;99.90
55369;DHT22;41247;49.736;8.752;2022-12-17T22:22:21;-6.70;99.90
55369;DHT22;41247;49.736;8.752;2022-12-17T22:26:06;-6.90;99.90
55369;DHT22;41247;49.736;8.752;2022-12-17T22:29:50;-7.00;99.90
55369;DHT22;41247;49.736;8.752;2022-12-17T22:33:31;-7.00;99.90
55369;DHT22;41247;49.736;8.752;2022-12-17T22:37:13;-7.00;99.90
55369;DHT22;41247;49.736;8.752;2022-12-17T22:40:53;-7.00;99.90
55369;DHT22;41247;49.736;8.752;2022-12-17T22:44:34;-7.00;99.90
55369;DHT22;41247;49.736;8.752;2022-12-17T22:48:14;-7.00;99.90
55369;DHT22;41247;49.736;8.752;2022-12-17T22:51:55;-7.10;99.90
55369;DHT22;41247;49.736;8.752;2022-12-17T22:55:36;-7.20;99.90
55369;DHT22;41247;49.736;8.752;2022-12-17T22:59:18;-7.30;99.90
55369;DHT22;41247;49.736;8.752;2022-12-17T23:02:58;-7.40;99.90
55369;DHT22;41247;49.736;8.752;2022-12-17T23:06:39;-7.50;99.90
55369;DHT22;41247;49.736;8.752;2022-12-17T23:10:21;-7.60;99.90
55369;DHT22;41247;49.736;8.752;2022-12-17T23:14:06;-7.60;99.90
55369;DHT22;41247;49.736;8.752;2022-12-17T23:17:47;-7.70;99.90
55369;DHT22;41247;49.736;8.752;2022-12-17T23:21:28;-7.70;99.90
55369;DHT22;41247;49.736;8.752;2022-12-17T23:25:09;-7.60;99.90
55369;DHT22;41247;49.736;8.752;2022-12-17T23:29:02;-7.60;99.90
55369;DHT22;41247;49.736;8.752;2022-12-17T23:32:45;-7.60;99.90
55369;DHT22;41247;49.736;8.752;2022-12-17T23:36:26;-7.70;99.90
55369;DHT22;41247;49.736;8.752;2022-12-17T23:40:10;-7.70;99.90
55369;DHT22;41247;49.736;8.752;2022-12-17T23:43:52;-7.80;99.90
55369;DHT22;41247;49.736;8.752;2022-12-17T23:47:33;-7.80;99.90
55369;DHT22;41247;49.736;8.752;2022-12-17T23:51:15;-7.80;99.90
55369;DHT22;41247;49.736;8.752;2022-12-17T23:54:57;-7.80;99.90
55369;DHT22;41247;49.736;8.752;2022-12-17T23:58:39;-7.80;99.90
